Time;durP1;ratioP1;P1;durP2;ratioP2;P2;SDS_P1;SDS_P2;PMS_P1;PMS_P2;Temp;Humidity;BMP_temperature;BMP_pressure;BME280_temperature;BME280_humidity;BME280_pressure;Samples;Min_cycle;Max_cycle;Signal;HPM_P1;HPM_P2
2020/12/21 00:00:27;;;;;;;24.60;15.58;;;;;;;3.08;71.57;101069.02;1758055;80;21143;-37
2020/12/21 00:02:56;;;;;;;24.45;15.30;;;;;;;3.04;71.49;101078.13;1772420;80;21166;-37
2020/12/21 00:05:24;;;;;;;32.45;17.50;;;;;;;3.04;71.52;101075.45;1777768;80;21370;-37
2020/12/21 00:07:53;;;;;;;30.45;16.50;;;;;;;3.02;71.68;101079.73;1779723;79;21175;-37
2020/12/21 00:10:21;;;;;;;30.00;17.75;;;;;;;3.00;71.85;101079.17;1756293;80;21147;-37
2020/12/21 00:12:49;;;;;;;33.95;19.12;;;;;;;3.02;71.99;101082.41;1750863;80;21067;-37
2020/12/21 00:15:18;;;;;;;33.58;17.40;;;;;;;3.07;71.95;101074.91;1749978;80;21178;-37
2020/12/21 00:17:46;;;;;;;44.48;17.65;;;;;;;3.06;71.99;101077.31;1776936;80;21383;-37
2020/12/21 00:20:15;;;;;;;31.73;18.32;;;;;;;3.07;72.07;101077.59;1770313;80;21102;-37
2020/12/21 00:22:43;;;;;;;27.87;16.73;;;;;;;3.12;71.83;101076.78;1780191;80;21114;-37
2020/12/21 00:25:12;;;;;;;21.60;12.68;;;;;;;3.19;71.72;101071.44;1777709;80;20996;-37
2020/12/21 00:27:41;;;;;;;36.42;18.02;;;;;;;3.23;71.74;101078.39;1781022;80;21119;-37
2020/12/21 00:30:10;;;;;;;36.75;18.65;;;;;;;3.25;71.70;101073.02;1780558;80;21397;-37
2020/12/21 00:32:38;;;;;;;30.20;16.52;;;;;;;3.25;71.59;101075.70;1764585;79;21143;-37
2020/12/21 00:35:06;;;;;;;27.37;15.45;;;;;;;3.25;71.55;101081.59;1762156;80;20997;-37
2020/12/21 00:37:36;;;;;;;26.52;16.00;;;;;;;3.25;71.55;101077.04;1748355;82;21155;-37
2020/12/21 00:40:18;;;;;;;26.40;15.85;;;;;;;3.35;71.45;101084.27;1811955;78;22751;-36
2020/12/21 00:42:46;;;;;;;29.27;16.82;;;;;;;3.38;71.15;101080.54;1801150;79;20972;-36
2020/12/21 00:45:15;;;;;;;24.37;14.85;;;;;;;3.47;70.91;101074.89;1787643;79;21398;-36
2020/12/21 00:47:44;;;;;;;21.25;13.62;;;;;;;3.18;70.58;101021.59;1776395;80;21031;-36
2020/12/21 00:50:12;;;;;;;24.50;14.50;;;;;;;3.45;70.29;101060.14;1776976;79;21004;-36
2020/12/21 00:52:41;;;;;;;31.12;15.00;;;;;;;3.42;70.16;101062.84;1783315;79;20929;-35
2020/12/21 00:55:09;;;;;;;26.45;14.90;;;;;;;3.42;70.11;101062.03;1776704;79;21024;-36
2020/12/21 00:57:38;;;;;;;25.88;14.73;;;;;;;3.41;70.10;101062.56;1776358;80;21361;-35
2020/12/21 01:00:07;;;;;;;23.12;14.83;;;;;;;3.40;70.15;101058.27;1796830;79;21008;-36
2020/12/21 01:02:35;;;;;;;21.43;13.83;;;;;;;3.42;69.99;101060.69;1804673;79;21279;-36
2020/12/21 01:05:03;;;;;;;21.75;13.60;;;;;;;3.47;69.89;101062.83;1787785;79;21482;-36
2020/12/21 01:07:32;;;;;;;28.77;14.58;;;;;;;3.49;69.88;101058.52;1796801;79;21008;-36
2020/12/21 01:10:01;;;;;;;25.90;14.07;;;;;;;3.44;69.96;101053.16;1808305;79;21202;-36
2020/12/21 01:12:29;;;;;;;27.55;13.38;;;;;;;3.39;69.80;101052.63;1800685;79;21134;-36
2020/12/21 01:14:57;;;;;;;36.73;12.03;;;;;;;3.28;69.74;101059.10;1776657;79;21169;-36
2020/12/21 01:17:29;;;;;;;25.50;12.28;;;;;;;3.17;69.75;101055.34;1798798;79;21126;-36
2020/12/21 01:20:00;;;;;;;21.27;12.78;;;;;;;2.99;69.99;101048.66;1806175;79;21154;-36
2020/12/21 01:22:28;;;;;;;22.22;12.93;;;;;;;2.85;70.24;101048.39;1779125;79;21800;-35
2020/12/21 01:24:57;;;;;;;21.05;12.20;;;;;;;2.76;70.56;101047.28;1776333;80;20988;-36
2020/12/21 01:27:25;;;;;;;26.77;12.93;;;;;;;2.71;71.01;101043.82;1799375;79;21369;-35
2020/12/21 01:29:54;;;;;;;24.87;11.22;;;;;;;2.67;71.31;101043.52;1806287;79;21166;-36
2020/12/21 01:32:22;;;;;;;26.75;12.03;;;;;;;2.57;71.39;101038.95;1790486;79;21130;-36
2020/12/21 01:34:50;;;;;;;18.25;10.43;;;;;;;2.45;71.70;101037.61;1781232;79;21307;-36
2020/12/21 01:37:19;;;;;;;18.40;12.33;;;;;;;2.39;71.78;101030.63;1791990;79;21103;-36
2020/12/21 01:39:48;;;;;;;18.20;11.80;;;;;;;2.37;71.92;101030.10;1797648;79;21048;-35
2020/12/21 01:42:18;;;;;;;18.62;12.18;;;;;;;2.43;72.05;101027.16;1767380;79;21107;-36
2020/12/21 01:44:50;;;;;;;29.85;13.62;;;;;;;2.49;72.20;101031.45;1784974;79;20930;-35
2020/12/21 01:47:19;;;;;;;24.52;12.15;;;;;;;2.56;72.22;101044.59;1769637;79;21201;-36
2020/12/21 01:49:48;;;;;;;28.03;12.90;;;;;;;2.62;72.19;101044.85;1762502;79;21589;-35
2020/12/21 01:54:12;;;;;;;17.90;11.43;;;;;;;2.75;72.04;101043.55;1834947;78;22686;-36
2020/12/21 01:56:40;;;;;;;18.90;12.03;;;;;;;2.69;72.10;101038.72;1806016;79;21024;-36
2020/12/21 01:59:09;;;;;;;16.15;9.85;;;;;;;2.82;71.62;101039.53;1786154;79;21182;-36
2020/12/21 02:01:37;;;;;;;18.50;11.33;;;;;;;2.88;71.22;101037.13;1776528;79;20996;-36
2020/12/21 02:04:05;;;;;;;19.42;11.15;;;;;;;2.84;71.03;101034.72;1738781;82;21047;-36
2020/12/21 02:06:34;;;;;;;21.62;11.68;;;;;;;2.85;71.11;101040.35;1724268;82;21050;-36
2020/12/21 02:09:03;;;;;;;18.10;10.63;;;;;;;2.84;70.80;101044.09;1714089;82;21020;-36
2020/12/21 02:11:31;;;;;;;21.02;10.88;;;;;;;2.82;70.89;101049.44;1721361;82;21414;-36
2020/12/21 02:14:00;;;;;;;20.17;11.03;;;;;;;2.77;70.92;101040.86;1714100;82;21038;-36
2020/12/21 02:16:28;;;;;;;19.17;12.53;;;;;;;2.77;71.15;101040.05;1714229;82;21060;-36
2020/12/21 02:18:56;;;;;;;15.23;10.38;;;;;;;2.85;70.95;101035.53;1739486;82;21137;-35
2020/12/21 02:21:25;;;;;;;14.25;9.53;;;;;;;2.98;70.82;101041.69;1742209;82;21123;-36
2020/12/21 02:23:53;;;;;;;19.30;11.45;;;;;;;3.01;70.46;101035.25;1743413;82;23499;-36
2020/12/21 02:26:22;;;;;;;18.30;11.70;;;;;;;3.01;70.53;101043.28;1731161;81;21163;-35
2020/12/21 02:28:55;;;;;;;19.62;11.65;;;;;;;3.01;70.60;101035.25;1737021;81;21056;-36
2020/12/21 02:31:24;;;;;;;19.42;11.73;;;;;;;3.05;70.54;101038.19;1724083;81;21401;-36
2020/12/21 02:33:53;;;;;;;30.32;12.75;;;;;;;3.06;70.66;101035.25;1728244;81;21185;-36
2020/12/21 02:36:22;;;;;;;32.07;10.87;;;;;;;3.09;70.60;101031.77;1753015;81;21200;-36
2020/12/21 02:38:50;;;;;;;21.37;13.30;;;;;;;3.09;70.48;101037.94;1747879;81;21174;-36
2020/12/21 02:41:19;;;;;;;20.88;12.93;;;;;;;3.12;70.29;101032.56;1724148;81;21472;-36
2020/12/21 02:43:47;;;;;;;23.10;12.53;;;;;;;3.19;70.15;101035.79;1724591;81;21437;-36
2020/12/21 02:46:16;;;;;;;20.50;13.10;;;;;;;3.21;69.99;101033.63;1718513;83;21170;-36
2020/12/21 02:48:47;;;;;;;31.27;14.27;;;;;;;3.20;70.08;101037.37;1726917;81;21261;-36
2020/12/21 02:51:16;;;;;;;29.18;14.45;;;;;;;3.19;70.26;101035.79;1723654;83;21879;-36
2020/12/21 02:53:45;;;;;;;23.15;12.90;;;;;;;3.17;70.45;101039.27;1725633;81;21147;-36
2020/12/21 02:56:13;;;;;;;30.27;13.75;;;;;;;3.12;70.42;101039.27;1684331;85;21178;-35
2020/12/21 02:58:42;;;;;;;19.90;13.08;;;;;;;3.08;70.58;101046.23;1690143;84;21198;-36
2020/12/21 03:01:11;;;;;;;19.20;12.93;;;;;;;3.09;70.55;101045.17;1685110;83;23612;-36
2020/12/21 03:03:39;;;;;;;16.97;11.10;;;;;;;3.11;70.53;101047.84;1686151;83;21162;-36
2020/12/21 03:06:09;;;;;;;19.75;11.70;;;;;;;3.12;70.46;101051.33;1701023;82;21174;-36
2020/12/21 03:08:37;;;;;;;18.52;12.03;;;;;;;3.13;70.49;101049.73;1699169;83;21479;-36
2020/12/21 03:11:09;;;;;;;15.18;10.80;;;;;;;2.85;70.49;101004.73;1684939;83;21211;-36
2020/12/21 03:13:38;;;;;;;17.77;11.80;;;;;;;3.19;70.31;101053.21;1708638;83;21214;-36
2020/12/21 03:16:07;;;;;;;17.30;11.50;;;;;;;3.17;70.28;101046.77;1685428;83;21689;-36
2020/12/21 03:18:35;;;;;;;16.57;11.70;;;;;;;3.18;70.15;101046.23;1703471;83;21081;-36
2020/12/21 03:21:04;;;;;;;20.12;12.68;;;;;;;3.17;70.18;101043.28;1685815;83;21188;-36
2020/12/21 03:23:32;;;;;;;18.65;12.30;;;;;;;3.17;70.24;101048.64;1691371;83;21135;-36
2020/12/21 03:26:00;;;;;;;17.95;11.88;;;;;;;3.25;70.18;101046.75;1684428;82;21390;-36
2020/12/21 03:28:29;;;;;;;25.02;14.98;;;;;;;3.27;70.05;101048.64;1684558;83;21187;-36
2020/12/21 03:30:58;;;;;;;23.92;14.50;;;;;;;3.20;70.23;101046.75;1684653;83;21159;-36
2020/12/21 03:33:27;;;;;;;29.85;16.05;;;;;;;3.16;70.31;101044.34;1683146;85;21183;-36
2020/12/21 03:35:55;;;;;;;26.50;15.63;;;;;;;3.12;70.46;101053.47;1674091;84;21217;-36
2020/12/21 03:38:23;;;;;;;24.27;14.78;;;;;;;3.01;70.75;101052.66;1684094;83;21489;-36
2020/12/21 03:40:52;;;;;;;21.30;13.48;;;;;;;2.97;70.84;101053.47;1684541;83;21210;-36
2020/12/21 03:43:20;;;;;;;27.62;15.28;;;;;;;2.96;70.86;101044.63;1683767;85;21032;-36
2020/12/21 03:45:49;;;;;;;24.67;15.40;;;;;;;2.95;70.95;101049.70;1684333;83;21115;-36
2020/12/21 03:48:17;;;;;;;32.17;14.95;;;;;;;2.92;71.13;101051.59;1684395;83;21162;-35
2020/12/21 03:50:46;;;;;;;40.30;17.35;;;;;;;2.89;71.34;101049.45;1684253;83;21438;-36
2020/12/21 03:53:15;;;;;;;33.15;17.12;;;;;;;2.86;71.40;101051.31;1701862;82;21196;-36
2020/12/21 03:55:44;;;;;;;28.32;17.12;;;;;;;2.83;71.65;101050.52;1756208;81;21151;-35
2020/12/21 03:58:13;;;;;;;32.03;17.73;;;;;;;2.86;71.68;101051.31;1772597;81;21128;-36
2020/12/21 04:00:42;;;;;;;;;;;;;;;2.97;71.58;101046.23;1767455;80;20970;-36
2020/12/21 04:03:10;;;;;;;32.25;17.37;;;;;;;3.06;71.51;101045.97;1742074;81;21216;-36
2020/12/21 04:05:40;;;;;;;50.73;17.75;;;;;;;3.03;71.76;101052.41;1763051;81;21171;-36
2020/12/21 04:08:09;;;;;;;42.75;18.77;;;;;;;3.06;71.46;101045.97;1742087;81;21145;-36
2020/12/21 04:10:38;;;;;;;40.25;18.27;;;;;;;3.00;71.39;101048.37;1743384;81;21144;-36
2020/12/21 04:13:06;;;;;;;29.82;17.20;;;;;;;2.91;71.55;101047.30;1743537;81;21140;-36
2020/12/21 04:15:35;;;;;;;32.08;18.02;;;;;;;2.87;71.71;101042.74;1742535;80;21293;-36
2020/12/21 04:18:03;;;;;;;28.35;16.48;;;;;;;2.90;71.81;101041.70;1741985;82;21212;-36
2020/12/21 04:20:33;;;;;;;38.45;17.57;;;;;;;2.94;71.94;101043.30;1759376;81;21152;-36
2020/12/21 04:23:02;;;;;;;38.40;20.20;;;;;;;3.00;71.73;101049.70;1742325;81;21183;-36
2020/12/21 04:25:31;;;;;;;54.43;19.33;;;;;;;2.97;71.62;101048.11;1743458;81;21175;-36
2020/12/21 04:27:59;;;;;;;34.50;18.05;;;;;;;2.84;71.77;101049.45;1771102;81;21209;-36
2020/12/21 04:30:28;;;;;;;31.50;18.65;;;;;;;2.79;71.86;101041.94;1746374;81;21164;-35
2020/12/21 04:32:56;;;;;;;33.88;17.37;;;;;;;2.85;71.97;101047.05;1742831;81;21204;-36
2020/12/21 04:35:25;;;;;;;28.85;17.67;;;;;;;2.85;71.94;101036.33;1747638;81;21169;-36
2020/12/21 04:37:53;;;;;;;38.30;18.25;;;;;;;2.85;72.12;101035.00;1741946;82;21496;-36
2020/12/21 04:40:21;;;;;;;46.50;19.82;;;;;;;2.88;72.04;101042.48;1742352;81;21346;-36
2020/12/21 04:42:53;;;;;;;32.98;17.10;;;;;;;2.84;72.02;101038.73;1757347;81;21168;-36
2020/12/21 04:45:21;;;;;;;29.65;18.27;;;;;;;2.77;72.11;101041.39;1748028;81;21017;-36
2020/12/21 04:47:50;;;;;;;29.92;17.37;;;;;;;2.75;72.14;101037.66;1761593;81;21156;-36
2020/12/21 04:50:18;;;;;;;31.77;17.80;;;;;;;2.82;72.00;101048.90;1745620;81;21148;-36
2020/12/21 04:52:51;;;;;;;44.25;19.02;;;;;;;2.81;72.18;101041.16;1743561;81;21381;-36
2020/12/21 04:55:23;;;;;;;40.58;17.60;;;;;;;2.76;72.23;101040.59;1757963;81;21064;-36
2020/12/21 04:58:01;;;;;;;37.40;19.02;;;;;;;2.71;72.28;101043.26;1756513;81;20986;-35
2020/12/21 05:00:32;;;;;;;31.37;17.98;;;;;;;2.67;72.46;101043.52;1742343;81;21062;-36
2020/12/21 05:03:02;;;;;;;30.70;17.62;;;;;;;2.71;72.31;101053.19;1758907;81;21167;-36
2020/12/21 05:05:34;;;;;;;28.47;17.55;;;;;;;2.76;72.35;101047.84;1747476;80;21639;-35
2020/12/21 05:08:22;;;;;;;30.72;17.02;;;;;;;2.82;72.31;101051.58;1770752;81;21156;-36
2020/12/21 05:11:04;;;;;;;38.83;18.85;;;;;;;2.82;72.13;101050.23;1744986;81;21001;-36
2020/12/21 05:13:34;;;;;;;32.90;18.85;;;;;;;2.79;72.18;101044.63;1752426;81;21026;-36
2020/12/21 05:16:02;;;;;;;20.52;12.28;;;;;;;2.80;72.27;101047.05;1742963;81;21162;-36
2020/12/21 05:18:34;;;;;;;30.32;17.62;;;;;;;2.80;72.18;101041.69;1742987;81;21651;-36
2020/12/21 05:21:07;;;;;;;28.02;16.75;;;;;;;2.89;71.90;101038.74;1758360;81;21010;-36
2020/12/21 05:23:35;;;;;;;29.82;17.62;;;;;;;3.03;71.58;101039.01;1756420;80;21057;-36
2020/12/21 05:26:10;;;;;;;29.82;18.45;;;;;;;3.13;71.33;101043.03;1742019;81;21037;-36
2020/12/21 05:28:40;;;;;;;35.78;21.10;;;;;;;3.19;71.23;101047.85;1742755;81;21180;-36
2020/12/21 05:31:11;;;;;;;33.38;18.85;;;;;;;3.18;71.11;101052.41;1744344;81;21274;-36
2020/12/21 05:33:45;;;;;;;31.33;19.00;;;;;;;3.17;71.14;101049.98;1743397;81;21155;-36
2020/12/21 05:36:21;;;;;;;31.85;18.05;;;;;;;3.15;71.10;101054.27;1742298;81;21030;-36
2020/12/21 05:39:04;;;;;;;33.28;17.80;;;;;;;3.12;71.17;101052.66;1743961;81;21073;-36
2020/12/21 05:41:32;;;;;;;33.60;19.00;;;;;;;3.19;70.98;101051.88;1742813;81;21192;-35
2020/12/21 05:44:05;;;;;;;31.82;17.85;;;;;;;3.27;70.81;101052.12;1772802;81;21365;-36
2020/12/21 05:46:34;;;;;;;33.50;18.90;;;;;;;3.31;70.68;101051.04;1749842;80;21065;-36
2020/12/21 05:49:02;;;;;;;38.13;20.37;;;;;;;3.34;70.67;101058.56;1742738;81;21188;-36
2020/12/21 05:54:14;;;;;;;45.25;21.48;;;;;;;3.40;70.53;101049.42;1811022;77;22453;-36
2020/12/21 05:56:43;;;;;;;37.38;17.80;;;;;;;3.36;70.42;101056.40;1744998;80;20956;-36
2020/12/21 05:59:12;;;;;;;39.48;18.52;;;;;;;3.36;70.49;101061.77;1787826;78;21381;-36
2020/12/21 06:01:40;;;;;;;32.28;19.12;;;;;;;3.35;70.61;101057.47;1793519;78;21126;-36
2020/12/21 06:04:10;;;;;;;36.17;19.57;;;;;;;3.38;70.44;101062.30;1795896;79;21039;-36
2020/12/21 06:06:38;;;;;;;38.70;18.73;;;;;;;3.39;70.40;101062.55;1778696;78;21087;-36
2020/12/21 06:09:06;;;;;;;42.45;18.30;;;;;;;3.40;70.34;101069.52;1784909;78;20973;-36
2020/12/21 06:11:39;;;;;;;;;;;;;;;3.39;70.29;101066.57;1801192;78;21031;-36
2020/12/21 06:14:12;;;;;;;44.35;17.48;;;;;;;3.40;70.42;101068.19;1795311;78;20276;-36
2020/12/21 06:16:40;;;;;;;34.48;17.12;;;;;;;3.33;70.59;101067.67;1797728;78;20989;-36
2020/12/21 06:19:11;;;;;;;;;;;;;;;3.31;70.61;101068.47;1808865;78;21150;-36
2020/12/21 06:21:49;;;;;;;32.70;17.32;;;;;;;3.30;70.66;101070.87;1802679;78;20271;-36
2020/12/21 06:24:24;;;;;;;33.40;19.05;;;;;;;3.21;70.90;101064.45;1749163;82;21376;-35
2020/12/21 06:26:53;;;;;;;31.12;16.35;;;;;;;3.30;70.68;101066.31;1759315;80;21130;-36
2020/12/21 06:29:24;;;;;;;37.35;17.55;;;;;;;3.37;70.44;101064.72;1748366;82;21030;-36
2020/12/21 06:31:59;;;;;;;37.93;16.80;;;;;;;3.37;70.44;101054.80;1740673;81;21649;-36
2020/12/21 06:34:37;;;;;;;40.12;17.60;;;;;;;3.41;70.39;101063.09;1744408;81;21695;-36
2020/12/21 06:37:19;;;;;;;39.58;19.37;;;;;;;3.39;70.42;101058.53;1775233;80;21382;-36
2020/12/21 06:40:03;;;;;;;31.68;15.75;;;;;;;2.98;70.30;100989.44;1756142;80;21103;-36
2020/12/21 06:42:31;;;;;;;42.38;18.65;;;;;;;3.37;70.46;101056.67;1748254;81;21047;-36
2020/12/21 06:45:00;;;;;;;29.57;17.40;;;;;;;3.37;70.51;101060.69;1757513;80;21163;-36
2020/12/21 06:47:28;;;;;;;34.65;18.42;;;;;;;3.39;70.53;101063.89;1716192;80;21179;-36
2020/12/21 06:49:57;;;;;;;32.50;19.23;;;;;;;3.44;70.27;101059.33;1736648;81;21470;-36
2020/12/21 06:52:25;;;;;;;36.90;19.55;;;;;;;3.45;70.16;101066.30;1706739;80;21024;-36
2020/12/21 06:54:54;;;;;;;39.60;18.32;;;;;;;3.42;70.28;101066.05;1762335;80;21160;-36
2020/12/21 06:57:23;;;;;;;34.27;19.00;;;;;;;3.43;70.51;101062.30;1743442;82;20990;-36
2020/12/21 06:59:59;;;;;;;37.48;20.35;;;;;;;3.46;70.47;101067.11;1740242;82;21144;-36
2020/12/21 07:02:28;;;;;;;34.33;18.60;;;;;;;3.45;70.34;101070.86;1743333;82;21215;-36
2020/12/21 07:04:56;;;;;;;36.65;20.27;;;;;;;3.40;70.42;101075.70;1780950;80;21029;-36
2020/12/21 07:07:28;;;;;;;36.10;21.40;;;;;;;3.41;70.47;101084.02;1777832;80;21466;-36
2020/12/21 07:09:56;;;;;;;31.35;18.62;;;;;;;3.42;70.59;101087.50;1774317;79;21116;-36
2020/12/21 07:12:25;;;;;;;36.00;20.68;;;;;;;3.52;70.42;101084.81;1782813;79;21123;-36
2020/12/21 07:14:53;;;;;;;39.25;21.42;;;;;;;3.55;70.54;101091.49;1781170;79;21428;-36
2020/12/21 07:17:23;;;;;;;41.02;21.82;;;;;;;3.59;70.60;101088.00;1781658;80;21144;-36
2020/12/21 07:19:52;;;;;;;40.63;22.13;;;;;;;3.58;70.46;101086.95;1778477;80;21168;-36
2020/12/21 07:22:20;;;;;;;43.02;21.97;;;;;;;3.53;70.51;101090.45;1794394;79;21182;-36
2020/12/21 07:24:49;;;;;;;40.12;21.90;;;;;;;3.44;70.65;101083.99;1791086;78;21103;-35
2020/12/21 07:27:17;;;;;;;39.78;21.30;;;;;;;3.44;70.70;101084.80;1738427;81;21421;-36
2020/12/21 07:29:45;;;;;;;37.88;21.12;;;;;;;3.53;70.61;101085.08;1778587;79;21432;-36
2020/12/21 07:32:14;;;;;;;41.02;21.60;;;;;;;3.63;70.62;101086.94;1796635;79;21016;-36
2020/12/21 07:34:43;;;;;;;40.60;21.30;;;;;;;3.62;70.55;101088.81;1791476;79;21136;-36
2020/12/21 07:37:12;;;;;;;44.18;22.02;;;;;;;3.60;70.42;101087.47;1752240;79;21562;-36
2020/12/21 07:39:41;;;;;;;42.00;20.87;;;;;;;3.59;70.43;101089.34;1791626;79;21200;-36
2020/12/21 07:42:12;;;;;;;47.00;21.15;;;;;;;3.60;70.25;101086.93;1744279;81;21222;-36
2020/12/21 07:44:50;;;;;;;45.92;23.00;;;;;;;3.58;70.26;101085.08;1741986;82;21158;-36
2020/12/21 07:47:30;;;;;;;40.58;22.15;;;;;;;3.51;70.26;101085.88;1742755;81;21209;-36
2020/12/21 07:49:59;;;;;;;30.05;14.83;;;;;;;3.48;70.34;101089.11;1748885;81;21600;-36
2020/12/21 07:52:28;;;;;;;40.90;22.58;;;;;;;3.54;70.44;101087.20;1742740;81;21488;-36
2020/12/21 07:54:59;;;;;;;40.28;21.95;;;;;;;3.54;70.42;101087.20;1718530;82;21353;-36
2020/12/21 07:57:31;;;;;;;42.83;22.35;;;;;;;3.59;70.62;101093.89;1716400;82;21166;-36
2020/12/21 07:59:59;;;;;;;43.23;22.65;;;;;;;3.64;70.77;101087.19;1731800;82;21151;-36
2020/12/21 08:02:28;;;;;;;43.80;22.62;;;;;;;3.69;70.70;101086.64;1800386;79;21151;-36
2020/12/21 08:04:58;;;;;;;40.25;21.87;;;;;;;3.73;70.79;101084.21;1784467;79;21698;-36
2020/12/21 08:07:28;;;;;;;42.27;22.42;;;;;;;3.78;70.64;101085.55;1807840;79;21194;-35
2020/12/21 08:09:58;;;;;;;;;;;;;;;3.81;70.65;101087.17;1778521;79;21154;-36
2020/12/21 08:12:32;;;;;;;39.50;21.60;;;;;;;3.92;70.33;101082.02;1787983;79;20493;-36
2020/12/21 08:15:00;;;;;;;40.50;21.52;;;;;;;4.01;70.13;101079.59;1744808;80;21637;-36
2020/12/21 08:17:30;;;;;;;33.00;17.10;;;;;;;4.08;69.81;101080.09;1782592;79;21194;-36
2020/12/21 08:19:59;;;;;;;40.38;21.60;;;;;;;4.08;69.81;101077.94;1787381;79;21035;-36
2020/12/21 08:22:29;;;;;;;46.28;22.17;;;;;;;4.10;69.89;101083.31;1759721;79;21023;-36
2020/12/21 08:25:13;;;;;;;49.35;22.62;;;;;;;4.08;69.91;101073.38;1770338;80;21057;-36
2020/12/21 08:27:54;;;;;;;51.30;23.52;;;;;;;4.09;69.86;101083.58;1746019;81;21147;-36
2020/12/21 08:30:23;;;;;;;42.27;21.73;;;;;;;4.00;70.06;101074.50;1777712;79;23521;-35
2020/12/21 08:32:52;;;;;;;38.00;21.68;;;;;;;3.97;70.25;101069.69;1768035;78;21150;-36
2020/12/21 08:35:26;;;;;;;43.00;22.42;;;;;;;4.03;70.36;101069.91;1780982;80;21142;-36
2020/12/21 08:38:14;;;;;;;39.35;21.40;;;;;;;4.08;70.36;101069.89;1776490;78;20997;-36
2020/12/21 08:40:41;;;;;;;40.75;22.27;;;;;;;4.10;70.36;101073.92;1786717;78;21086;-36
2020/12/21 08:43:10;;;;;;;48.58;22.98;;;;;;;4.15;70.45;101066.39;1813549;79;21340;-36
2020/12/21 08:45:39;;;;;;;49.95;22.55;;;;;;;4.19;70.28;101068.78;1774538;79;21147;-36
2020/12/21 08:48:07;;;;;;;36.42;20.60;;;;;;;4.20;70.27;101062.34;1776962;78;21158;-36
2020/12/21 08:50:35;;;;;;;39.05;20.97;;;;;;;4.20;70.14;101058.31;1788581;79;21016;-36
2020/12/21 08:53:04;;;;;;;37.73;21.20;;;;;;;4.25;70.10;101056.41;1743391;80;21126;-36
2020/12/21 08:55:35;;;;;;;37.98;19.73;;;;;;;4.30;69.95;101059.61;1736981;81;23458;-36
2020/12/21 08:58:03;;;;;;;38.70;20.85;;;;;;;4.00;69.74;101007.41;1790795;79;21136;-36
2020/12/21 09:00:32;;;;;;;38.80;19.80;;;;;;;4.23;69.79;101053.73;1792572;79;21162;-36
2020/12/21 09:03:01;;;;;;;52.93;21.50;;;;;;;4.20;69.98;101055.63;1789039;79;21180;-36
2020/12/21 09:05:31;;;;;;;40.10;20.40;;;;;;;4.16;69.84;101049.22;1797313;79;21558;-36
2020/12/21 09:07:59;;;;;;;42.05;20.00;;;;;;;4.08;70.03;101051.11;1796225;79;21379;-36
2020/12/21 09:10:28;;;;;;;39.90;20.00;;;;;;;3.64;70.27;101002.17;1780632;79;21081;-36
2020/12/21 09:12:56;;;;;;;39.83;20.60;;;;;;;4.02;70.61;101055.69;1787981;79;21090;-36
2020/12/21 09:15:25;;;;;;;36.38;20.35;;;;;;;4.08;70.53;101039.84;1779301;79;21001;-36
2020/12/21 09:17:55;;;;;;;40.73;20.35;;;;;;;4.08;70.43;101038.50;1774930;79;21121;-36
2020/12/21 09:20:23;;;;;;;41.33;22.02;;;;;;;4.06;70.71;101042.02;1806421;79;21142;-36
2020/12/21 09:22:52;;;;;;;41.23;21.45;;;;;;;4.04;70.78;101029.92;1812946;79;21151;-36
2020/12/21 09:25:21;;;;;;;42.98;21.55;;;;;;;4.02;70.90;101034.78;1798266;79;21127;-36
2020/12/21 09:27:49;;;;;;;41.73;22.40;;;;;;;4.01;71.04;101037.20;1791153;79;20996;-36
2020/12/21 09:30:20;;;;;;;43.90;22.75;;;;;;;4.04;71.10;101037.98;1801078;79;21150;-36
2020/12/21 09:32:48;;;;;;;41.40;21.35;;;;;;;4.15;71.15;101035.52;1804335;79;22165;-36
2020/12/21 09:35:17;;;;;;;41.83;22.17;;;;;;;4.14;70.99;101029.34;1780539;79;21006;-36
2020/12/21 09:37:45;;;;;;;44.03;22.48;;;;;;;4.07;70.96;101030.71;1786760;79;21123;-35
2020/12/21 09:40:15;;;;;;;;;;;;;;;3.93;71.30;101033.19;1796516;79;20988;-35
2020/12/21 09:42:43;;;;;;;41.77;22.13;;;;;;;3.73;71.57;101024.67;1804359;79;20276;-35
2020/12/21 09:45:17;;;;;;;43.33;21.90;;;;;;;3.68;72.00;101043.45;1787369;79;21198;-36
2020/12/21 09:47:47;;;;;;;;;;;;;;;3.69;72.30;101031.66;1775344;80;21159;-35
2020/12/21 09:50:15;;;;;;;29.95;16.62;;;;;;;3.58;72.72;101031.98;1772908;79;20148;-35
2020/12/21 09:52:46;;;;;;;37.65;20.27;;;;;;;3.58;72.72;101031.98;1772546;81;21287;-35
2020/12/21 09:55:15;;;;;;;37.35;20.48;;;;;;;3.36;72.80;101004.94;1782296;79;21152;-36
2020/12/21 09:57:44;;;;;;;33.00;18.87;;;;;;;3.58;72.98;101030.10;1787962;79;21271;-36
2020/12/21 10:00:14;;;;;;;28.95;17.52;;;;;;;3.64;72.88;101020.95;1774214;79;21043;-35
2020/12/21 10:02:43;;;;;;;30.77;18.12;;;;;;;3.74;72.40;101019.58;1788061;79;21107;-35
2020/12/21 10:05:13;;;;;;;31.80;18.73;;;;;;;3.77;72.58;101025.75;1790455;79;21131;-34
2020/12/21 10:07:41;;;;;;;31.12;17.45;;;;;;;3.83;72.49;101024.64;1804465;79;21142;-35
2020/12/21 10:10:11;;;;;;;27.82;16.67;;;;;;;3.84;72.29;101016.05;1793870;79;22085;-35
2020/12/21 10:12:40;;;;;;;25.97;14.98;;;;;;;3.84;72.04;101016.86;1738552;80;21167;-35
2020/12/21 10:15:09;;;;;;;26.85;16.77;;;;;;;3.84;71.93;101023.56;1790248;79;21130;-37
2020/12/21 10:17:38;;;;;;;25.60;15.30;;;;;;;3.89;72.05;101019.52;1801012;79;21201;-36
2020/12/21 10:20:09;;;;;;;30.00;16.57;;;;;;;3.91;72.05;101015.23;1797726;79;21507;-38
2020/12/21 10:22:38;;;;;;;30.55;17.07;;;;;;;3.89;72.16;101007.98;1807299;79;21910;-36
2020/12/21 10:25:07;;;;;;;25.32;14.95;;;;;;;3.88;72.24;101008.52;1812940;78;21107;-36
2020/12/21 10:27:36;;;;;;;26.17;14.83;;;;;;;3.85;72.29;101010.42;1812760;78;21033;-36
2020/12/21 10:30:06;;;;;;;25.92;15.28;;;;;;;3.87;72.27;101011.50;1793360;79;21143;-36
2020/12/21 10:32:34;;;;;;;20.95;13.13;;;;;;;3.94;72.14;101012.80;1781669;79;21131;-36
2020/12/21 10:35:03;;;;;;;23.92;14.58;;;;;;;3.93;71.99;101004.48;1789479;79;21265;-36
2020/12/21 10:37:32;;;;;;;24.82;14.63;;;;;;;3.99;72.06;101009.83;1770958;81;21178;-35
2020/12/21 10:40:00;;;;;;;24.18;13.58;;;;;;;3.97;72.14;101000.70;1771083;81;21167;-36
2020/12/21 10:42:30;;;;;;;20.75;12.78;;;;;;;3.98;72.17;101004.99;1793871;79;21585;-35
2020/12/21 10:44:58;;;;;;;18.52;12.65;;;;;;;4.06;72.06;100998.27;1801614;79;21176;-36
2020/12/21 10:47:29;;;;;;;22.37;13.55;;;;;;;4.20;71.96;101001.41;1803695;79;21463;-36
2020/12/21 10:49:57;;;;;;;25.88;14.13;;;;;;;4.25;71.77;101004.07;1797788;79;21131;-37
2020/12/21 10:52:27;;;;;;;24.75;14.20;;;;;;;4.23;71.50;101001.38;1771540;79;21553;-36
2020/12/21 10:54:55;;;;;;;22.90;14.43;;;;;;;4.19;71.57;101001.14;1785190;79;21279;-36
2020/12/21 10:57:24;;;;;;;25.95;14.15;;;;;;;4.09;71.60;100997.16;1801715;79;21139;-37
2020/12/21 10:59:52;;;;;;;24.35;13.93;;;;;;;4.05;71.77;100998.80;1801601;79;21429;-37
2020/12/21 11:02:21;;;;;;;29.65;15.32;;;;;;;4.13;71.89;100997.41;1772698;81;21142;-37
2020/12/21 11:04:49;;;;;;;25.90;15.43;;;;;;;4.14;72.02;100994.45;1779869;79;21102;-36
2020/12/21 11:07:17;;;;;;;25.23;14.85;;;;;;;4.11;71.90;100993.68;1783717;79;21135;-37
2020/12/21 11:09:46;;;;;;;23.07;13.98;;;;;;;4.08;72.26;100993.41;1796362;79;21457;-37
2020/12/21 11:12:15;;;;;;;22.40;13.28;;;;;;;4.06;72.05;100993.70;1802852;79;21281;-37
2020/12/21 11:14:44;;;;;;;19.95;12.98;;;;;;;4.10;72.18;100989.92;1792198;79;21178;-37
2020/12/21 11:17:12;;;;;;;19.17;12.53;;;;;;;4.23;72.06;100988.77;1778857;79;21139;-37
2020/12/21 11:19:43;;;;;;;22.25;13.35;;;;;;;4.28;71.97;100986.05;1800346;79;21020;-37
2020/12/21 11:22:12;;;;;;;19.27;12.10;;;;;;;4.30;71.74;100987.13;1800072;79;21048;-37
2020/12/21 11:24:41;;;;;;;24.02;12.95;;;;;;;4.21;71.57;100993.59;1796754;79;21197;-37
2020/12/21 11:27:10;;;;;;;24.57;12.75;;;;;;;4.09;71.81;100994.48;1796508;79;21179;-37
2020/12/21 11:29:39;;;;;;;20.15;11.12;;;;;;;4.10;71.86;100993.41;1801012;79;21617;-37
2020/12/21 11:32:10;;;;;;;23.10;13.05;;;;;;;4.16;71.75;100995.00;1799406;79;21158;-37
2020/12/21 11:34:42;;;;;;;22.62;13.53;;;;;;;4.19;72.00;101001.68;1804429;79;21634;-37